Time;durP1;ratioP1;P1;durP2;ratioP2;P2;SDS_P1;SDS_P2;PMS_P1;PMS_P2;Temp;Humidity;BMP_temperature;BMP_pressure;BME280_temperature;BME280_humidity;BME280_pressure;Samples;Min_cycle;Max_cycle;Signal;HPM_P1;HPM_P2
2021/06/18 00:00:21;;;;;;;10.17;9.17;;;25.30;61.80;;;;;;5106115;28;20525;-87
2021/06/18 00:02:48;;;;;;;10.00;9.00;;;25.30;61.90;;;;;;5105768;28;20191;-87
2021/06/18 00:05:14;;;;;;;12.30;8.90;;;25.40;62.40;;;;;;5105929;28;20414;-87
2021/06/18 00:07:41;;;;;;;14.50;9.90;;;25.40;63.80;;;;;;5102694;28;20465;-88
2021/06/18 00:10:09;;;;;;;12.60;10.20;;;25.30;66.10;;;;;;5084263;28;20414;-86
2021/06/18 00:12:35;;;;;;;13.90;10.93;;;25.20;67.00;;;;;;5087951;28;20575;-87
2021/06/18 00:15:01;;;;;;;12.87;11.70;;;25.00;68.50;;;;;;5103930;28;20422;-87
2021/06/18 00:17:27;;;;;;;12.87;11.57;;;24.90;67.70;;;;;;5104776;28;20422;-87
2021/06/18 00:19:53;;;;;;;13.23;11.90;;;24.60;69.20;;;;;;5106640;28;20414;-88
2021/06/18 00:22:20;;;;;;;15.00;11.93;;;24.50;69.50;;;;;;5106272;28;20451;-88
2021/06/18 00:24:46;;;;;;;23.93;13.60;;;24.40;68.70;;;;;;5106968;28;20477;-88
2021/06/18 00:27:11;;;;;;;14.50;13.00;;;24.40;71.90;;;;;;5108022;28;20473;-87
2021/06/18 00:29:37;;;;;;;17.63;13.87;;;24.30;73.60;;;;;;5108369;28;20175;-87
2021/06/18 00:32:03;;;;;;;17.53;15.17;;;24.30;73.30;;;;;;5105642;28;20193;-87
2021/06/18 00:34:29;;;;;;;14.20;12.70;;;24.10;70.40;;;;;;5104418;28;20206;-87
2021/06/18 00:36:55;;;;;;;12.90;11.60;;;24.10;72.00;;;;;;5103152;28;20413;-88
2021/06/18 00:39:21;;;;;;;13.93;12.17;;;24.00;70.80;;;;;;5103856;28;20437;-87
2021/06/18 00:41:47;;;;;;;15.07;13.47;;;23.90;71.40;;;;;;5103579;28;20512;-87
2021/06/18 00:44:13;;;;;;;15.70;13.67;;;23.90;70.80;;;;;;5103982;28;20497;-87
2021/06/18 00:46:39;;;;;;;16.90;14.30;;;24.00;71.40;;;;;;5102604;28;20487;-88
2021/06/18 00:49:07;;;;;;;16.47;14.77;;;23.90;70.90;;;;;;5085958;28;20180;-87
2021/06/18 00:51:33;;;;;;;14.57;12.67;;;24.00;69.70;;;;;;5102556;28;20430;-87
2021/06/18 00:53:59;;;;;;;14.90;13.13;;;24.00;69.20;;;;;;5102616;28;20414;-88
2021/06/18 00:56:25;;;;;;;15.57;13.87;;;24.00;69.20;;;;;;5102545;28;20422;-88
2021/06/18 00:58:52;;;;;;;18.30;14.70;;;24.10;68.70;;;;;;5103593;28;20423;-88
2021/06/18 01:01:18;;;;;;;19.93;14.03;;;24.00;68.40;;;;;;5104338;28;20557;-88
2021/06/18 01:03:43;;;;;;;16.47;12.53;;;24.00;69.50;;;;;;5104883;28;20486;-88
2021/06/18 01:06:16;;;;;;;22.73;14.80;;;24.10;68.50;;;;;;5103706;28;20237;-87
2021/06/18 01:08:44;;;;;;;18.67;13.63;;;24.10;67.70;;;;;;5105101;28;20180;-87
2021/06/18 01:11:29;;;;;;;15.03;13.53;;;24.10;68.00;;;;;;5104560;28;20445;-87
2021/06/18 01:14:14;;;;;;;17.30;13.70;;;24.10;68.70;;;;;;5104127;28;20413;-88
2021/06/18 01:16:50;;;;;;;16.07;14.50;;;24.20;68.00;;;;;;5107638;28;20435;-87
2021/06/18 01:19:39;;;;;;;14.17;12.63;;;24.30;67.90;;;;;;5106339;28;20413;-87
2021/06/18 01:22:11;;;;;;;15.40;13.90;;;24.20;67.50;;;;;;5102934;28;20449;-87
2021/06/18 01:24:42;;;;;;;15.83;12.80;;;24.30;69.00;;;;;;5102751;28;20957;-87
2021/06/18 01:27:27;;;;;;;15.40;13.30;;;24.30;69.20;;;;;;5107922;28;20570;-88
2021/06/18 01:29:59;;;;;;;15.83;13.50;;;24.40;69.00;;;;;;5112940;28;20461;-88
2021/06/18 01:32:51;;;;;;;21.20;16.77;;;24.40;67.60;;;;;;5109363;28;20487;-88
2021/06/18 01:35:19;;;;;;;15.70;13.67;;;24.50;68.10;;;;;;5103375;28;20410;-88
2021/06/18 01:37:56;;;;;;;20.83;15.37;;;24.50;68.30;;;;;;5102189;28;20488;-88
2021/06/18 01:40:26;;;;;;;19.23;15.07;;;24.30;67.80;;;;;;5102129;28;20417;-87
2021/06/18 01:42:56;;;;;;;17.20;15.40;;;24.10;67.50;;;;;;5102005;28;20478;-88
2021/06/18 01:45:26;;;;;;;25.60;15.93;;;24.10;68.50;;;;;;5101567;28;20473;-88
2021/06/18 01:47:54;;;;;;;18.77;15.83;;;24.10;69.70;;;;;;5102712;28;20455;-88
2021/06/18 01:50:21;;;;;;;22.00;17.43;;;24.10;69.90;;;;;;5101757;28;20571;-88
2021/06/18 01:52:54;;;;;;;20.90;18.23;;;24.10;70.40;;;;;;5102356;28;20489;-87
2021/06/18 01:55:24;;;;;;;19.27;17.13;;;24.10;70.30;;;;;;5102437;28;20473;-88
2021/06/18 01:57:53;;;;;;;20.00;17.67;;;24.00;70.20;;;;;;5101469;28;20914;-88
2021/06/18 02:00:20;;;;;;;23.10;20.27;;;24.20;71.00;;;;;;5100376;28;20417;-88
2021/06/18 02:02:47;;;;;;;24.40;20.90;;;24.10;70.60;;;;;;5083548;28;20423;-87
2021/06/18 02:05:15;;;;;;;29.83;23.23;;;23.80;71.60;;;;;;5101700;28;20410;-88
2021/06/18 02:07:43;;;;;;;33.47;24.07;;;23.70;73.00;;;;;;5112126;28;20446;-88
2021/06/18 02:10:10;;;;;;;28.20;24.60;;;23.60;74.90;;;;;;5119551;28;20483;-89
2021/06/18 02:12:37;;;;;;;38.60;29.97;;;23.40;76.50;;;;;;5115579;28;20443;-87
2021/06/18 02:15:07;;;;;;;44.57;36.83;;;23.30;79.10;;;;;;5084451;28;20450;-87
2021/06/18 02:17:35;;;;;;;42.20;35.00;;;23.20;81.60;;;;;;5082569;28;20494;-88
2021/06/18 02:20:04;;;;;;;47.03;34.10;;;23.20;82.00;;;;;;5084644;28;20426;-87
2021/06/18 02:22:30;;;;;;;55.37;40.30;;;23.10;81.70;;;;;;5084434;28;20945;-88
2021/06/18 02:24:57;;;;;;;60.97;42.27;;;;;;;;;;5084149;28;20431;-88
2021/06/18 02:27:24;;;;;;;77.00;49.60;;;23.10;83.20;;;;;;5084359;28;20465;-90
2021/06/18 02:29:50;;;;;;;82.57;57.00;;;23.10;86.20;;;;;;5080622;28;20967;-90
2021/06/18 02:32:17;;;;;;;85.90;61.57;;;22.90;88.40;;;;;;5065658;28;20930;-90
2021/06/18 02:34:43;;;;;;;115.37;71.97;;;22.80;89.90;;;;;;5093536;28;20398;-90
2021/06/18 02:37:11;;;;;;;123.10;69.80;;;22.70;90.70;;;;;;5096078;28;20441;-90
2021/06/18 02:39:37;;;;;;;130.80;74.67;;;22.70;91.40;;;;;;5082884;28;20850;-91
2021/06/18 02:42:03;;;;;;;133.03;81.50;;;22.70;92.40;;;;;;5087282;28;20442;-90
2021/06/18 02:44:29;;;;;;;102.30;51.07;;;22.70;92.60;;;;;;5087865;28;20917;-92
2021/06/18 02:47:26;;;;;;;72.13;42.37;;;22.60;91.60;;;;;;5083533;28;20454;-92
2021/06/18 02:49:54;;;;;;;64.93;40.43;;;22.10;91.50;;;;;;5082350;28;20165;-92
2021/06/18 02:52:34;;;;;;;52.60;35.17;;;21.50;92.40;;;;;;5081738;28;20437;-90
2021/06/18 02:55:11;;;;;;;52.00;35.17;;;21.20;93.60;;;;;;5081982;28;20407;-90
2021/06/18 02:58:01;;;;;;;61.70;41.40;;;21.10;94.50;;;;;;5086727;28;20414;-90
2021/06/18 03:00:29;;;;;;;78.77;47.00;;;21.20;97.30;;;;;;5091647;28;20411;-89
2021/06/18 03:02:59;;;;;;;91.80;56.10;;;21.00;99.90;;;;;;5089508;28;20498;-89
2021/06/18 03:05:27;;;;;;;112.27;60.40;;;21.20;99.90;;;;;;5079885;28;20411;-89
2021/06/18 03:08:06;;;;;;;150.63;74.47;;;21.30;99.90;;;;;;5063219;28;20526;-89
2021/06/18 03:10:46;;;;;;;122.93;67.70;;;21.50;99.90;;;;;;5078509;28;20780;-89
2021/06/18 03:13:16;;;;;;;141.73;71.57;;;21.50;99.90;;;;;;5078939;28;20434;-88
2021/06/18 03:15:45;;;;;;;155.27;75.90;;;21.20;99.90;;;;;;5078835;28;20415;-89
2021/06/18 03:18:18;;;;;;;182.37;85.77;;;21.10;99.90;;;;;;5078378;28;20410;-90
2021/06/18 03:20:46;;;;;;;196.67;91.53;;;21.10;99.90;;;;;;5078249;28;20426;-90
2021/06/18 03:23:15;;;;;;;222.97;98.23;;;21.30;99.90;;;;;;5079311;28;20419;-89
2021/06/18 03:25:43;;;;;;;209.30;96.70;;;21.30;99.90;;;;;;5079053;28;20410;-90
2021/06/18 03:28:11;;;;;;;229.50;103.93;;;21.30;99.90;;;;;;5079343;28;20410;-90
2021/06/18 03:30:37;;;;;;;223.53;102.00;;;21.30;99.90;;;;;;5078514;28;20418;-89
2021/06/18 03:33:05;;;;;;;220.13;102.97;;;21.20;99.90;;;;;;5078078;28;20410;-89
2021/06/18 03:35:33;;;;;;;247.87;104.80;;;21.20;99.90;;;;;;5078231;28;20417;-89
2021/06/18 03:38:00;;;;;;;219.73;99.87;;;21.20;99.90;;;;;;5079267;28;20422;-90
2021/06/18 03:40:26;;;;;;;223.07;99.67;;;21.20;99.90;;;;;;5071574;28;20433;-89
2021/06/18 03:42:53;;;;;;;225.73;100.67;;;21.20;99.90;;;;;;5099770;28;20960;-89
2021/06/18 03:45:21;;;;;;;221.77;100.97;;;21.10;99.90;;;;;;5098974;28;20505;-89
2021/06/18 03:47:49;;;;;;;213.20;96.17;;;21.00;99.90;;;;;;5098009;28;20458;-90
2021/06/18 03:50:19;;;;;;;212.53;98.53;;;20.90;99.90;;;;;;5097488;28;20414;-90
2021/06/18 03:52:45;;;;;;;222.17;99.10;;;20.90;99.90;;;;;;5097943;28;20430;-89
2021/06/18 03:55:11;;;;;;;232.23;102.27;;;20.90;99.90;;;;;;5098641;28;20489;-89
2021/06/18 03:57:40;;;;;;;210.48;99.60;;;20.80;99.90;;;;;;5080129;28;20421;-90
2021/06/18 04:00:08;;;;;;;232.20;104.63;;;20.80;99.90;;;;;;5101994;28;20733;-89
2021/06/18 04:02:35;;;;;;;222.65;101.82;;;20.80;99.90;;;;;;5102392;28;20441;-89
2021/06/18 04:05:03;;;;;;;226.50;101.07;;;20.90;99.90;;;;;;5101369;28;20251;-89
2021/06/18 04:07:31;;;;;;;241.52;108.38;;;21.00;99.90;;;;;;5099622;28;20271;-89
2021/06/18 04:09:57;;;;;;;226.73;103.00;;;21.00;99.90;;;;;;5099152;28;20172;-89
2021/06/18 04:12:23;;;;;;;230.97;108.20;;;21.00;99.90;;;;;;5098135;28;20198;-89
2021/06/18 04:14:49;;;;;;;236.33;107.10;;;20.90;99.90;;;;;;5097064;28;20413;-89
2021/06/18 04:17:16;;;;;;;236.00;102.57;;;20.90;99.90;;;;;;5099756;28;20470;-89
2021/06/18 04:19:43;;;;;;;223.73;104.57;;;21.00;99.90;;;;;;5100136;28;20422;-89
2021/06/18 04:22:14;;;;;;;214.23;99.73;;;21.00;99.90;;;;;;5103472;28;20200;-89
2021/06/18 04:24:40;;;;;;;243.73;106.73;;;21.00;99.90;;;;;;5104153;28;20414;-89
2021/06/18 04:27:06;;;;;;;240.43;106.27;;;21.00;99.90;;;;;;5103435;28;20496;-89
2021/06/18 04:29:32;;;;;;;204.37;91.80;;;21.00;99.90;;;;;;5103835;28;20186;-90
2021/06/18 04:31:58;;;;;;;215.20;99.07;;;21.10;99.90;;;;;;5103698;28;20429;-90
2021/06/18 04:34:24;;;;;;;242.40;106.63;;;21.10;99.90;;;;;;5103566;28;20178;-89
2021/06/18 04:36:50;;;;;;;218.87;97.20;;;21.10;99.90;;;;;;5103411;28;20182;-89
2021/06/18 04:39:16;;;;;;;212.47;98.17;;;21.10;99.90;;;;;;5103834;28;20485;-89
2021/06/18 04:41:43;;;;;;;202.23;89.00;;;21.00;99.90;;;;;;5103647;28;20443;-90
2021/06/18 04:44:09;;;;;;;200.40;91.33;;;21.00;99.90;;;;;;5102680;28;20176;-89
2021/06/18 04:46:35;;;;;;;188.60;87.47;;;21.10;99.90;;;;;;5103541;28;20821;-90
2021/06/18 04:49:01;;;;;;;189.80;92.47;;;21.10;99.90;;;;;;5104027;28;20413;-89
2021/06/18 04:51:27;;;;;;;186.93;90.40;;;21.10;99.90;;;;;;5102284;28;20208;-90
2021/06/18 04:53:59;;;;;;;186.77;85.27;;;21.10;99.90;;;;;;5101601;28;20184;-90
2021/06/18 04:56:24;;;;;;;191.73;88.13;;;20.90;99.90;;;;;;5102923;28;20499;-89
2021/06/18 04:58:51;;;;;;;181.27;83.80;;;21.00;99.90;;;;;;5103967;28;20809;-90
2021/06/18 05:01:16;;;;;;;172.33;83.73;;;21.00;99.90;;;;;;5104565;28;20611;-89
2021/06/18 05:03:42;;;;;;;163.47;80.97;;;21.00;99.90;;;;;;5104229;28;20426;-90
2021/06/18 05:06:08;;;;;;;170.97;85.87;;;21.00;99.90;;;;;;5104746;28;20530;-88
2021/06/18 05:08:34;;;;;;;165.73;78.17;;;21.10;99.90;;;;;;5105039;28;20418;-89
2021/06/18 05:10:59;;;;;;;152.90;79.10;;;21.10;99.90;;;;;;5104785;28;20667;-90
2021/06/18 05:13:25;;;;;;;146.07;76.47;;;21.20;99.90;;;;;;5103976;28;20172;-91
2021/06/18 05:15:51;;;;;;;150.60;75.27;;;21.20;97.80;;;;;;5103360;28;20198;-91
2021/06/18 05:18:17;;;;;;;128.13;73.03;;;21.20;96.90;;;;;;5102704;28;20646;-90
2021/06/18 05:20:43;;;;;;;127.10;65.67;;;21.30;96.00;;;;;;5103283;28;20422;-90
2021/06/18 05:23:09;;;;;;;113.10;63.33;;;21.20;93.80;;;;;;5103530;28;20249;-90
2021/06/18 05:25:36;;;;;;;109.80;62.30;;;21.20;93.90;;;;;;5102476;28;20176;-90
2021/06/18 05:28:01;;;;;;;99.90;60.57;;;21.30;93.60;;;;;;5104970;28;20472;-90
2021/06/18 05:30:27;;;;;;;93.93;53.83;;;21.40;93.40;;;;;;5105520;28;20417;-91
2021/06/18 05:32:53;;;;;;;85.17;53.30;;;21.40;93.00;;;;;;5103831;28;20175;-91
2021/06/18 05:35:19;;;;;;;89.00;54.30;;;21.50;92.90;;;;;;5105219;28;20508;-90
2021/06/18 05:37:45;;;;;;;75.60;50.53;;;21.60;92.70;;;;;;5105264;28;20424;-91
2021/06/18 05:40:11;;;;;;;65.13;45.47;;;21.60;92.10;;;;;;5106263;28;20999;-92
2021/06/18 05:42:37;;;;;;;66.23;45.90;;;21.60;91.50;;;;;;5104319;28;20488;-91
2021/06/18 05:45:08;;;;;;;64.03;44.27;;;21.60;91.50;;;;;;5104399;28;20422;-91
2021/06/18 05:47:34;;;;;;;63.03;44.87;;;21.70;91.20;;;;;;5103473;28;20208;-91
2021/06/18 05:50:00;;;;;;;58.37;41.30;;;21.70;90.90;;;;;;5102863;28;20418;-91
2021/06/18 05:52:26;;;;;;;57.90;41.43;;;21.80;90.90;;;;;;5109607;28;20418;-89
2021/06/18 05:54:52;;;;;;;55.90;42.97;;;21.70;90.20;;;;;;5118440;28;20243;-89
2021/06/18 05:57:17;;;;;;;59.40;42.27;;;21.70;90.10;;;;;;5108576;28;20256;-90
2021/06/18 05:59:43;;;;;;;47.90;37.00;;;21.90;90.10;;;;;;5104003;28;20183;-90
2021/06/18 06:02:09;;;;;;;57.43;39.33;;;22.00;90.30;;;;;;5103012;28;20670;-91
2021/06/18 06:04:34;;;;;;;49.40;36.47;;;22.00;89.50;;;;;;5105524;28;20225;-91
2021/06/18 06:07:00;;;;;;;54.03;39.77;;;22.10;89.40;;;;;;5107881;28;20212;-91
2021/06/18 06:09:26;;;;;;;48.63;36.60;;;22.00;88.40;;;;;;5109896;28;20247;-91
2021/06/18 06:11:52;;;;;;;51.67;39.17;;;22.00;88.30;;;;;;5111182;28;20438;-91
2021/06/18 06:14:19;;;;;;;50.37;37.57;;;22.20;88.70;;;;;;5107391;28;20176;-91
2021/06/18 06:16:46;;;;;;;50.30;37.07;;;22.20;88.50;;;;;;5111282;28;20422;-91
2021/06/18 06:19:13;;;;;;;50.60;39.40;;;22.20;87.60;;;;;;5116831;28;20410;-91
2021/06/18 06:21:44;;;;;;;51.10;37.50;;;22.30;87.50;;;;;;5110057;28;20473;-92
2021/06/18 06:24:11;;;;;;;41.53;33.20;;;22.30;87.30;;;;;;5100750;28;20409;-91
2021/06/18 06:26:38;;;;;;;47.07;37.23;;;22.30;87.30;;;;;;5100046;28;20497;-91
2021/06/18 06:29:04;;;;;;;47.67;32.37;;;22.40;87.10;;;;;;5100195;28;20410;-91
2021/06/18 06:31:30;;;;;;;45.60;35.57;;;22.40;88.00;;;;;;5099396;28;20440;-91
2021/06/18 06:34:00;;;;;;;45.80;35.40;;;22.50;86.70;;;;;;5101152;28;20417;-91
2021/06/18 06:36:26;;;;;;;41.53;33.27;;;22.20;85.60;;;;;;5101734;28;20406;-91
2021/06/18 06:38:52;;;;;;;41.60;33.57;;;22.30;86.20;;;;;;5101375;28;20446;-91
2021/06/18 06:41:17;;;;;;;36.83;31.70;;;22.40;86.40;;;;;;5100372;28;20449;-91
2021/06/18 06:43:43;;;;;;;42.23;32.80;;;22.40;86.00;;;;;;5099711;28;20417;-91
2021/06/18 06:46:09;;;;;;;39.97;31.07;;;22.60;86.50;;;;;;5115154;28;20188;-91
2021/06/18 06:48:35;;;;;;;42.27;31.47;;;22.60;85.00;;;;;;5118476;28;20409;-91
2021/06/18 06:51:01;;;;;;;42.50;34.00;;;22.60;85.20;;;;;;5118020;28;20207;-91
2021/06/18 06:53:28;;;;;;;46.73;34.70;;;22.80;85.50;;;;;;5110770;28;20457;-91
2021/06/18 06:55:54;;;;;;;45.17;29.60;;;22.90;84.80;;;;;;5102323;28;20646;-91
2021/06/18 06:58:20;;;;;;;37.97;29.33;;;22.80;84.20;;;;;;5109153;28;20414;-91
2021/06/18 07:00:46;;;;;;;34.37;28.50;;;22.80;84.30;;;;;;5099984;28;20430;-91
2021/06/18 07:03:11;;;;;;;33.90;27.93;;;22.90;83.50;;;;;;5099756;28;20180;-91
2021/06/18 07:05:37;;;;;;;38.60;29.93;;;23.00;83.50;;;;;;5099657;28;20263;-91
2021/06/18 07:08:20;;;;;;;31.47;27.67;;;23.30;83.80;;;;;;5100054;28;20204;-91
2021/06/18 07:10:48;;;;;;;32.87;27.73;;;23.40;82.30;;;;;;5100876;28;20433;-91
2021/06/18 07:13:14;;;;;;;34.57;27.53;;;23.60;81.80;;;;;;5099979;28;20422;-91
2021/06/18 07:15:40;;;;;;;35.20;27.03;;;24.00;81.90;;;;;;5100645;28;20409;-91
2021/06/18 07:18:06;;;;;;;27.13;23.77;;;24.30;80.40;;;;;;5100713;28;20488;-91
2021/06/18 07:20:33;;;;;;;24.67;21.77;;;24.60;79.80;;;;;;5112804;28;20425;-91
2021/06/18 07:23:02;;;;;;;23.93;20.90;;;24.50;76.70;;;;;;5115979;28;20479;-91
2021/06/18 07:25:28;;;;;;;24.87;20.00;;;24.70;77.00;;;;;;5117251;28;20417;-91
2021/06/18 07:27:54;;;;;;;25.17;21.80;;;25.10;76.30;;;;;;5107079;28;20530;-90
2021/06/18 07:30:24;;;;;;;23.77;20.07;;;25.00;74.40;;;;;;5100536;28;20490;-91
2021/06/18 07:32:52;;;;;;;21.23;18.50;;;25.20;74.20;;;;;;5100892;28;20176;-90
2021/06/18 07:35:18;;;;;;;20.03;17.73;;;25.30;74.10;;;;;;5100367;28;20425;-90
2021/06/18 07:37:45;;;;;;;20.80;18.23;;;25.60;74.10;;;;;;5100497;28;20432;-91
2021/06/18 07:40:12;;;;;;;19.60;17.37;;;25.80;73.20;;;;;;5099189;28;20423;-91
2021/06/18 07:42:38;;;;;;;20.53;16.50;;;25.90;72.90;;;;;;5098119;28;20443;-91
2021/06/18 07:45:05;;;;;;;18.53;16.63;;;26.00;74.10;;;;;;5097856;28;20515;-90
2021/06/18 07:47:31;;;;;;;16.80;14.23;;;26.00;72.50;;;;;;5099288;28;20485;-90
2021/06/18 07:49:58;;;;;;;19.50;13.73;;;25.90;71.30;;;;;;5100104;28;20416;-91
2021/06/18 07:52:24;;;;;;;17.47;15.37;;;25.80;71.50;;;;;;5102039;28;20538;-90
2021/06/18 07:54:56;;;;;;;14.77;13.37;;;25.80;73.80;;;;;;5104070;28;20425;-90
2021/06/18 07:57:22;;;;;;;14.27;12.93;;;25.40;72.20;;;;;;5104891;28;20463;-90
2021/06/18 07:59:48;;;;;;;16.30;13.03;;;25.50;73.20;;;;;;5087228;28;20410;-90
2021/06/18 08:02:14;;;;;;;13.27;12.00;;;25.30;72.10;;;;;;5102929;28;20631;-91
2021/06/18 08:04:43;;;;;;;14.83;11.90;;;25.30;72.80;;;;;;5103961;28;20237;-90
2021/06/18 08:07:08;;;;;;;17.23;12.00;;;25.40;73.00;;;;;;5103788;28;20215;-91
2021/06/18 08:09:34;;;;;;;12.17;11.03;;;25.40;72.80;;;;;;5084035;28;20423;-90
2021/06/18 08:12:00;;;;;;;13.40;12.00;;;25.40;72.20;;;;;;5081760;28;20221;-91
2021/06/18 08:14:28;;;;;;;14.43;12.73;;;25.10;72.60;;;;;;5101717;28;20417;-91
2021/06/18 08:16:57;;;;;;;13.63;11.70;;;25.20;72.90;;;;;;5092657;28;20556;-91
2021/06/18 08:19:22;;;;;;;11.07;9.97;;;25.30;73.60;;;;;;5084414;28;20422;-91
2021/06/18 08:21:48;;;;;;;12.90;10.63;;;25.40;74.20;;;;;;5083293;28;20941;-91
2021/06/18 08:24:17;;;;;;;10.70;9.80;;;25.50;73.00;;;;;;5084022;28;20211;-91
2021/06/18 08:26:43;;;;;;;12.37;9.77;;;25.60;73.40;;;;;;5084189;28;20262;-91
2021/06/18 08:29:09;;;;;;;13.30;11.23;;;25.80;71.80;;;;;;5084445;28;20408;-90
2021/06/18 08:31:35;;;;;;;12.97;11.67;;;25.90;71.50;;;;;;5083213;28;20438;-91
2021/06/18 08:34:02;;;;;;;16.93;11.47;;;25.90;70.50;;;;;;5085115;28;20180;-91
2021/06/18 08:36:27;;;;;;;12.50;11.20;;;26.00;71.40;;;;;;5083540;28;20416;-91
2021/06/18 08:38:53;;;;;;;11.23;10.33;;;26.10;71.30;;;;;;5085830;28;20415;-91
2021/06/18 08:41:20;;;;;;;12.57;10.50;;;26.00;71.00;;;;;;5099879;28;20200;-91
2021/06/18 08:43:48;;;;;;;10.93;9.37;;;26.10;70.70;;;;;;5105057;28;20195;-91
2021/06/18 08:46:14;;;;;;;11.83;10.63;;;26.20;70.30;;;;;;5104744;28;20455;-91
2021/06/18 08:48:40;;;;;;;11.17;10.07;;;25.90;69.40;;;;;;5105426;28;20410;-91
2021/06/18 08:51:06;;;;;;;13.90;11.20;;;26.00;70.70;;;;;;5103722;28;20193;-91
2021/06/18 08:53:35;;;;;;;18.17;11.60;;;26.00;70.90;;;;;;5105395;28;20218;-90
2021/06/18 08:56:01;;;;;;;11.97;10.67;;;25.90;70.00;;;;;;5105198;28;20464;-93
2021/06/18 08:58:27;;;;;;;12.83;10.60;;;26.00;71.20;;;;;;5104983;28;20444;-93
2021/06/18 09:00:56;;;;;;;16.60;12.93;;;26.10;71.60;;;;;;5104288;28;20444;-93
2021/06/18 09:03:43;;;;;;;11.90;10.70;;;26.10;70.50;;;;;;5104654;28;20428;-93
2021/06/18 09:06:20;;;;;;;16.10;12.57;;;26.30;70.50;;;;;;5083101;28;20494;-93
2021/06/18 09:08:47;;;;;;;12.83;11.50;;;26.30;70.80;;;;;;5082821;28;20415;-93
2021/06/18 09:11:34;;;;;;;14.67;13.17;;;26.50;70.70;;;;;;5086868;28;20442;-93
2021/06/18 09:14:15;;;;;;;14.40;12.67;;;26.60;69.80;;;;;;5105592;28;20491;-93
2021/06/18 09:16:40;;;;;;;18.40;13.00;;;26.70;68.70;;;;;;5106278;28;20437;-94
2021/06/18 09:19:24;;;;;;;12.83;11.70;;;26.80;68.00;;;;;;5105256;28;20424;-93
2021/06/18 09:22:09;;;;;;;11.90;10.70;;;26.90;68.50;;;;;;5115292;28;20574;-93
2021/06/18 09:24:40;;;;;;;17.30;11.53;;;27.20;69.90;;;;;;5119306;28;20396;-92
2021/06/18 09:27:13;;;;;;;17.63;12.20;;;27.30;69.00;;;;;;5101334;28;20510;-93
2021/06/18 09:29:41;;;;;;;15.07;12.90;;;27.50;67.10;;;;;;5106687;28;20483;-93
2021/06/18 09:32:12;;;;;;;15.80;12.23;;;27.60;66.60;;;;;;5106215;28;20528;-93
2021/06/18 09:35:00;;;;;;;18.00;12.87;;;27.60;65.60;;;;;;5107217;28;20436;-93
2021/06/18 09:37:30;;;;;;;13.47;12.17;;;27.60;64.90;;;;;;5112976;28;20418;-93
2021/06/18 09:40:19;;;;;;;13.23;11.83;;;27.70;64.80;;;;;;5113007;28;20434;-93
2021/06/18 09:42:52;;;;;;;16.90;13.00;;;28.00;65.60;;;;;;5094468;28;20480;-93
2021/06/18 09:45:21;;;;;;;14.20;12.70;;;28.10;64.20;;;;;;5091308;28;20418;-93
2021/06/18 09:47:47;;;;;;;15.40;11.50;;;28.10;63.70;;;;;;5085671;28;20470;-94
2021/06/18 09:50:13;;;;;;;14.73;13.23;;;28.10;63.50;;;;;;5096258;28;20793;-93
2021/06/18 09:52:40;;;;;;;14.37;12.87;;;28.00;63.90;;;;;;5098855;28;20434;-93
2021/06/18 09:55:06;;;;;;;14.60;13.07;;;28.00;65.00;;;;;;5100713;28;20225;-93
2021/06/18 09:57:42;;;;;;;13.80;12.50;;;28.10;64.40;;;;;;5099525;28;20427;-93
2021/06/18 10:00:13;;;;;;;17.23;14.53;;;28.00;63.60;;;;;;5098374;28;20447;-93
2021/06/18 10:02:45;;;;;;;15.43;14.03;;;28.10;63.70;;;;;;5098551;28;20441;-93
2021/06/18 10:05:16;;;;;;;16.90;14.70;;;28.10;63.50;;;;;;5098731;28;20483;-93
2021/06/18 10:07:44;;;;;;;14.80;13.40;;;28.00;63.10;;;;;;5098303;28;20477;-93
2021/06/18 10:10:15;;;;;;;16.03;14.23;;;28.10;64.70;;;;;;5098543;28;20418;-92
2021/06/18 10:12:41;;;;;;;15.33;13.73;;;28.10;65.30;;;;;;5094705;28;20435;-93
2021/06/18 10:15:16;;;;;;;17.83;15.50;;;28.30;64.70;;;;;;5077978;28;20415;-93
2021/06/18 10:17:43;;;;;;;19.13;14.47;;;28.40;64.30;;;;;;5077528;28;20422;-93
2021/06/18 10:20:21;;;;;;;14.93;12.47;;;28.50;64.00;;;;;;5061185;28;20434;-92
2021/06/18 10:23:00;;;;;;;14.73;13.33;;;28.70;62.00;;;;;;5079399;28;20419;-93
2021/06/18 10:25:47;;;;;;;15.10;13.03;;;28.60;61.80;;;;;;5099594;28;20431;-92
2021/06/18 10:28:20;;;;;;;11.63;10.63;;;28.70;60.80;;;;;;5098969;28;20492;-89
2021/06/18 10:30:51;;;;;;;13.20;11.90;;;28.70;60.90;;;;;;5095992;28;20434;-90
2021/06/18 10:33:28;;;;;;;14.03;12.73;;;28.80;61.00;;;;;;5097875;28;20406;-89
2021/06/18 10:35:59;;;;;;;14.77;13.13;;;28.80;60.30;;;;;;5095263;28;20424;-89
2021/06/18 10:38:35;;;;;;;13.57;12.47;;;28.90;60.50;;;;;;5096395;28;20419;-89
2021/06/18 10:41:13;;;;;;;14.73;13.00;;;28.80;59.70;;;;;;5096396;28;20429;-89
2021/06/18 10:43:40;;;;;;;13.10;12.00;;;28.90;60.50;;;;;;5096057;28;20410;-89
2021/06/18 10:46:07;;;;;;;15.13;11.70;;;28.80;59.80;;;;;;5096554;28;20453;-89
2021/06/18 10:48:52;;;;;;;14.13;11.37;;;28.90;59.70;;;;;;5096787;28;20502;-89
2021/06/18 10:51:30;;;;;;;14.90;12.47;;;28.80;59.00;;;;;;5095604;28;20433;-89
2021/06/18 10:54:06;;;;;;;13.30;11.90;;;28.90;59.60;;;;;;5095819;28;20959;-90
2021/06/18 10:56:54;;;;;;;13.03;11.60;;;29.10;59.90;;;;;;5096504;28;20413;-91
2021/06/18 10:59:32;;;;;;;12.63;11.43;;;29.10;58.90;;;;;;5091161;28;20872;-90
2021/06/18 11:02:01;;;;;;;15.57;11.60;;;29.20;59.30;;;;;;5096536;28;20865;-91
2021/06/18 11:04:42;;;;;;;12.57;11.47;;;29.40;59.50;;;;;;5096767;28;20947;-91
2021/06/18 11:07:34;;;;;;;13.00;11.30;;;29.40;57.80;;;;;;5096331;28;20505;-90
2021/06/18 11:10:16;;;;;;;12.07;10.97;;;29.40;57.40;;;;;;5097116;28;20485;-90
2021/06/18 11:12:41;;;;;;;18.20;10.70;;;29.70;58.70;;;;;;5092873;28;20989;-91
2021/06/18 11:15:07;;;;;;;12.13;10.90;;;29.60;56.60;;;;;;5075928;28;20434;-90
2021/06/18 11:17:53;;;;;;;16.77;9.40;;;29.60;57.30;;;;;;5075361;28;20684;-90
2021/06/18 11:20:35;;;;;;;10.23;9.23;;;29.50;56.40;;;;;;5075876;28;20906;-91
2021/06/18 11:23:13;;;;;;;14.80;9.97;;;29.40;57.60;;;;;;5076094;28;20449;-90
2021/06/18 11:25:44;;;;;;;10.67;9.70;;;29.50;56.10;;;;;;5077003;28;20385;-90
2021/06/18 11:28:22;;;;;;;12.07;10.70;;;29.50;56.00;;;;;;5075069;28;20465;-90
2021/06/18 11:30:54;;;;;;;16.73;10.37;;;29.50;57.60;;;;;;5073544;28;20552;-90
2021/06/18 11:33:42;;;;;;;10.30;9.30;;;29.60;57.50;;;;;;5075417;28;20389;-90
2021/06/18 11:36:32;;;;;;;10.50;9.50;;;29.60;58.00;;;;;;5096327;28;20468;-90
2021/06/18 11:38:59;;;;;;;10.63;9.50;;;29.60;57.30;;;;;;5084836;28;20396;-91
2021/06/18 11:41:41;;;;;;;16.20;9.30;;;29.60;56.80;;;;;;5094507;28;20438;-90
2021/06/18 11:44:08;;;;;;;9.93;8.93;;;29.50;57.00;;;;;;5095405;28;20422;-91
2021/06/18 11:46:36;;;;;;;12.63;9.40;;;29.60;55.40;;;;;;5095554;28;20467;-91
2021/06/18 11:49:18;;;;;;;10.00;8.87;;;29.70;54.70;;;;;;5088141;28;20422;-91
2021/06/18 11:51:44;;;;;;;11.70;8.57;;;29.80;55.70;;;;;;5084667;28;20443;-91
2021/06/18 11:54:29;;;;;;;9.13;8.23;;;29.70;56.00;;;;;;5087485;28;20385;-90
2021/06/18 11:56:59;;;;;;;11.23;7.80;;;29.60;56.20;;;;;;5088373;28;20440;-90
2021/06/18 11:59:24;;;;;;;11.60;8.70;;;29.70;56.40;;;;;;5087039;28;20432;-91
2021/06/18 12:01:50;;;;;;;9.97;7.77;;;29.80;55.40;;;;;;5085596;28;20441;-91
2021/06/18 12:04:18;;;;;;;9.93;8.70;;;29.90;53.70;;;;;;5084157;28;20252;-91
2021/06/18 12:06:44;;;;;;;8.43;6.83;;;29.90;54.70;;;;;;5085450;28;20206;-91
2021/06/18 12:09:12;;;;;;;10.20;8.07;;;29.90;55.40;;;;;;5105251;28;20414;-89
2021/06/18 12:11:51;;;;;;;11.93;7.20;;;29.90;55.20;;;;;;5104410;28;20207;-90
2021/06/18 12:14:16;;;;;;;7.80;7.00;;;30.00;55.30;;;;;;5105921;28;20409;-89
2021/06/18 12:16:47;;;;;;;8.47;7.67;;;30.10;55.90;;;;;;5106257;28;20425;-90
2021/06/18 12:19:26;;;;;;;9.43;7.60;;;30.10;53.90;;;;;;5089528;28;20187;-91
2021/06/18 12:22:12;;;;;;;9.30;7.33;;;30.20;53.00;;;;;;5094550;28;20441;-90
2021/06/18 12:24:38;;;;;;;10.97;7.03;;;30.10;54.20;;;;;;5087425;28;20410;-90
2021/06/18 12:27:17;;;;;;;8.47;7.60;;;30.10;55.40;;;;;;5088164;28;20807;-91
2021/06/18 12:29:58;;;;;;;10.07;7.57;;;30.10;55.50;;;;;;5088951;28;20187;-91
2021/06/18 12:32:26;;;;;;;7.00;6.30;;;30.20;53.90;;;;;;5092526;28;20418;-90
2021/06/18 12:34:54;;;;;;;11.50;6.50;;;30.30;53.90;;;;;;5096422;28;20426;-91
2021/06/18 12:37:25;;;;;;;6.90;6.30;;;30.50;53.20;;;;;;5099840;28;20421;-91